<?xml version="1.0" encoding="UTF-8" standalone="no" ?>
<gpx xmlns="http://www.topografix.com/GPX/1/1" xmlns:xsi="http://www.w3.org/2001/XMLSchema-instance" xsi:schemaLocation="http://www.topografix.com/GPX/1/1 http://www.topografix.com/GPX/1/1/gpx.xsd" version="1.1" creator="VisuGPX - https://www.visugpx.com">
  <metadata>
    <name>De la Coquille à Thiviers</name>
    <desc><![CDATA[LE CHEMIN VERS COMPOSTELLE, LA VOIE DE VEZELAY d'EGUZON A ST JEAN-PIED-DE-PORT]]></desc>
  </metadata>
  <trk>
    <name><![CDATA[9552414-La Coquille - Thiviers]]></name>
    <trkseg>
      <trkpt lat="45.5425" lon="0.97691">
        <ele>344</ele>
        <time>2019-02-08T14:45:06Z</time>
      </trkpt>
      <trkpt lat="45.54196" lon="0.97685">
        <ele>343</ele>
        <time>2019-02-08T14:46:06Z</time>
      </trkpt>
      <trkpt lat="45.54126" lon="0.97675">
        <ele>342</ele>
        <time>2019-02-08T14:47:06Z</time>
      </trkpt>
      <trkpt lat="45.54076" lon="0.9767">
        <ele>341</ele>
        <time>2019-02-08T14:48:06Z</time>
      </trkpt>
      <trkpt lat="45.54018" lon="0.97651">
        <ele>340</ele>
        <time>2019-02-08T14:49:06Z</time>
      </trkpt>
      <trkpt lat="45.54001" lon="0.97704">
        <ele>338</ele>
        <time>2019-02-08T14:50:06Z</time>
      </trkpt>
      <trkpt lat="45.5399" lon="0.97722">
        <ele>338</ele>
        <time>2019-02-08T14:51:06Z</time>
      </trkpt>
      <trkpt lat="45.53975" lon="0.97737">
        <ele>337</ele>
        <time>2019-02-08T14:52:06Z</time>
      </trkpt>
      <trkpt lat="45.53948" lon="0.97752">
        <ele>337</ele>
        <time>2019-02-08T14:53:06Z</time>
      </trkpt>
      <trkpt lat="45.53926" lon="0.97775">
        <ele>337</ele>
        <time>2019-02-08T14:54:06Z</time>
      </trkpt>
      <trkpt lat="45.53921" lon="0.97793">
        <ele>337</ele>
        <time>2019-02-08T14:55:06Z</time>
      </trkpt>
      <trkpt lat="45.53919" lon="0.9783">
        <ele>336</ele>
        <time>2019-02-08T14:56:06Z</time>
      </trkpt>
      <trkpt lat="45.53918" lon="0.97866">
        <ele>335</ele>
        <time>2019-02-08T14:57:06Z</time>
      </trkpt>
      <trkpt lat="45.53911" lon="0.97886">
        <ele>335</ele>
        <time>2019-02-08T14:58:06Z</time>
      </trkpt>
      <trkpt lat="45.53895" lon="0.979">
        <ele>334</ele>
        <time>2019-02-08T14:59:06Z</time>
      </trkpt>
      <trkpt lat="45.53864" lon="0.9791">
        <ele>333</ele>
        <time>2019-02-08T15:00:06Z</time>
      </trkpt>
      <trkpt lat="45.53819" lon="0.97916">
        <ele>332</ele>
        <time>2019-02-08T15:01:06Z</time>
      </trkpt>
      <trkpt lat="45.53804" lon="0.97915">
        <ele>332</ele>
        <time>2019-02-08T15:02:06Z</time>
      </trkpt>
      <trkpt lat="45.53793" lon="0.97929">
        <ele>331</ele>
        <time>2019-02-08T15:03:06Z</time>
      </trkpt>
      <trkpt lat="45.53774" lon="0.97939">
        <ele>330</ele>
        <time>2019-02-08T15:04:06Z</time>
      </trkpt>
      <trkpt lat="45.53753" lon="0.97941">
        <ele>330</ele>
        <time>2019-02-08T15:05:06Z</time>
      </trkpt>
      <trkpt lat="45.53718" lon="0.97941">
        <ele>330</ele>
        <time>2019-02-08T15:06:06Z</time>
      </trkpt>
      <trkpt lat="45.53706" lon="0.97948">
        <ele>330</ele>
        <time>2019-02-08T15:07:06Z</time>
      </trkpt>
      <trkpt lat="45.53693" lon="0.97959">
        <ele>330</ele>
        <time>2019-02-08T15:08:06Z</time>
      </trkpt>
      <trkpt lat="45.53688" lon="0.97976">
        <ele>329</ele>
        <time>2019-02-08T15:09:06Z</time>
      </trkpt>
      <trkpt lat="45.53703" lon="0.98072">
        <ele>326</ele>
        <time>2019-02-08T15:10:06Z</time>
      </trkpt>
      <trkpt lat="45.53706" lon="0.98115">
        <ele>324</ele>
        <time>2019-02-08T15:11:06Z</time>
      </trkpt>
      <trkpt lat="45.53715" lon="0.98265">
        <ele>317</ele>
        <time>2019-02-08T15:12:06Z</time>
      </trkpt>
      <trkpt lat="45.53718" lon="0.98322">
        <ele>313</ele>
        <time>2019-02-08T15:13:06Z</time>
      </trkpt>
      <trkpt lat="45.53722" lon="0.98356">
        <ele>312</ele>
        <time>2019-02-08T15:14:06Z</time>
      </trkpt>
      <trkpt lat="45.53735" lon="0.98391">
        <ele>312</ele>
        <time>2019-02-08T15:15:06Z</time>
      </trkpt>
      <trkpt lat="45.53753" lon="0.98431">
        <ele>313</ele>
        <time>2019-02-08T15:16:06Z</time>
      </trkpt>
      <trkpt lat="45.53761" lon="0.98468">
        <ele>312</ele>
        <time>2019-02-08T15:17:06Z</time>
      </trkpt>
      <trkpt lat="45.53755" lon="0.98492">
        <ele>311</ele>
        <time>2019-02-08T15:18:06Z</time>
      </trkpt>
      <trkpt lat="45.53748" lon="0.9851">
        <ele>309</ele>
        <time>2019-02-08T15:19:06Z</time>
      </trkpt>
      <trkpt lat="45.53736" lon="0.98519">
        <ele>307</ele>
        <time>2019-02-08T15:20:06Z</time>
      </trkpt>
      <trkpt lat="45.53705" lon="0.98513">
        <ele>306</ele>
        <time>2019-02-08T15:21:06Z</time>
      </trkpt>
      <trkpt lat="45.53676" lon="0.98499">
        <ele>304</ele>
        <time>2019-02-08T15:22:06Z</time>
      </trkpt>
      <trkpt lat="45.53583" lon="0.98453">
        <ele>291</ele>
        <time>2019-02-08T15:23:06Z</time>
      </trkpt>
      <trkpt lat="45.53541" lon="0.98431">
        <ele>290</ele>
        <time>2019-02-08T15:24:06Z</time>
      </trkpt>
      <trkpt lat="45.53504" lon="0.98412">
        <ele>288</ele>
        <time>2019-02-08T15:25:06Z</time>
      </trkpt>
      <trkpt lat="45.5349" lon="0.98405">
        <ele>289</ele>
        <time>2019-02-08T15:26:06Z</time>
      </trkpt>
      <trkpt lat="45.5347" lon="0.98375">
        <ele>290</ele>
        <time>2019-02-08T15:27:06Z</time>
      </trkpt>
      <trkpt lat="45.53456" lon="0.98356">
        <ele>290</ele>
        <time>2019-02-08T15:28:06Z</time>
      </trkpt>
      <trkpt lat="45.53432" lon="0.98349">
        <ele>292</ele>
        <time>2019-02-08T15:29:06Z</time>
      </trkpt>
      <trkpt lat="45.53387" lon="0.98351">
        <ele>297</ele>
        <time>2019-02-08T15:30:06Z</time>
      </trkpt>
      <trkpt lat="45.53316" lon="0.98364">
        <ele>305</ele>
        <time>2019-02-08T15:31:06Z</time>
      </trkpt>
      <trkpt lat="45.5326" lon="0.98402">
        <ele>310</ele>
        <time>2019-02-08T15:32:06Z</time>
      </trkpt>
      <trkpt lat="45.5322" lon="0.98426">
        <ele>313</ele>
        <time>2019-02-08T15:33:06Z</time>
      </trkpt>
      <trkpt lat="45.53203" lon="0.98451">
        <ele>315</ele>
        <time>2019-02-08T15:34:06Z</time>
      </trkpt>
      <trkpt lat="45.53188" lon="0.98491">
        <ele>316</ele>
        <time>2019-02-08T15:35:06Z</time>
      </trkpt>
      <trkpt lat="45.53168" lon="0.98572">
        <ele>316</ele>
        <time>2019-02-08T15:36:06Z</time>
      </trkpt>
      <trkpt lat="45.53149" lon="0.98616">
        <ele>317</ele>
        <time>2019-02-08T15:37:06Z</time>
      </trkpt>
      <trkpt lat="45.53138" lon="0.98684">
        <ele>320</ele>
        <time>2019-02-08T15:38:06Z</time>
      </trkpt>
      <trkpt lat="45.53128" lon="0.98709">
        <ele>322</ele>
        <time>2019-02-08T15:39:06Z</time>
      </trkpt>
      <trkpt lat="45.53058" lon="0.98814">
        <ele>331</ele>
        <time>2019-02-08T15:40:06Z</time>
      </trkpt>
      <trkpt lat="45.53028" lon="0.98817">
        <ele>333</ele>
        <time>2019-02-08T15:41:06Z</time>
      </trkpt>
      <trkpt lat="45.52974" lon="0.98834">
        <ele>337</ele>
        <time>2019-02-08T15:42:06Z</time>
      </trkpt>
      <trkpt lat="45.5295" lon="0.98844">
        <ele>339</ele>
        <time>2019-02-08T15:43:06Z</time>
      </trkpt>
      <trkpt lat="45.52924" lon="0.98857">
        <ele>342</ele>
        <time>2019-02-08T15:44:06Z</time>
      </trkpt>
      <trkpt lat="45.52879" lon="0.98883">
        <ele>346</ele>
        <time>2019-02-08T15:45:06Z</time>
      </trkpt>
      <trkpt lat="45.5282" lon="0.98923">
        <ele>351</ele>
        <time>2019-02-08T15:46:06Z</time>
      </trkpt>
      <trkpt lat="45.52798" lon="0.98949">
        <ele>351</ele>
        <time>2019-02-08T15:47:06Z</time>
      </trkpt>
      <trkpt lat="45.52764" lon="0.98992">
        <ele>351</ele>
        <time>2019-02-08T15:48:06Z</time>
      </trkpt>
      <trkpt lat="45.52743" lon="0.99025">
        <ele>349</ele>
        <time>2019-02-08T15:49:06Z</time>
      </trkpt>
      <trkpt lat="45.52729" lon="0.98995">
        <ele>348</ele>
        <time>2019-02-08T15:50:06Z</time>
      </trkpt>
      <trkpt lat="45.52697" lon="0.98942">
        <ele>347</ele>
        <time>2019-02-08T15:51:06Z</time>
      </trkpt>
      <trkpt lat="45.52667" lon="0.98909">
        <ele>347</ele>
        <time>2019-02-08T15:52:06Z</time>
      </trkpt>
      <trkpt lat="45.5258" lon="0.98837">
        <ele>346</ele>
        <time>2019-02-08T15:53:06Z</time>
      </trkpt>
      <trkpt lat="45.52493" lon="0.98758">
        <ele>342</ele>
        <time>2019-02-08T15:54:06Z</time>
      </trkpt>
      <trkpt lat="45.52446" lon="0.98694">
        <ele>340</ele>
        <time>2019-02-08T15:55:06Z</time>
      </trkpt>
      <trkpt lat="45.52401" lon="0.98648">
        <ele>340</ele>
        <time>2019-02-08T15:56:06Z</time>
      </trkpt>
      <trkpt lat="45.52338" lon="0.98584">
        <ele>343</ele>
        <time>2019-02-08T15:57:06Z</time>
      </trkpt>
      <trkpt lat="45.52292" lon="0.98543">
        <ele>340</ele>
        <time>2019-02-08T15:58:06Z</time>
      </trkpt>
      <trkpt lat="45.52228" lon="0.98496">
        <ele>340</ele>
        <time>2019-02-08T15:59:06Z</time>
      </trkpt>
      <trkpt lat="45.52008" lon="0.98314">
        <ele>337</ele>
        <time>2019-02-08T16:00:06Z</time>
      </trkpt>
      <trkpt lat="45.51956" lon="0.98277">
        <ele>336</ele>
        <time>2019-02-08T16:01:06Z</time>
      </trkpt>
      <trkpt lat="45.51925" lon="0.98258">
        <ele>335</ele>
        <time>2019-02-08T16:02:06Z</time>
      </trkpt>
      <trkpt lat="45.51887" lon="0.98231">
        <ele>333</ele>
        <time>2019-02-08T16:03:06Z</time>
      </trkpt>
      <trkpt lat="45.51835" lon="0.98181">
        <ele>332</ele>
        <time>2019-02-08T16:04:06Z</time>
      </trkpt>
      <trkpt lat="45.51816" lon="0.98166">
        <ele>332</ele>
        <time>2019-02-08T16:05:06Z</time>
      </trkpt>
      <trkpt lat="45.51753" lon="0.98121">
        <ele>332</ele>
        <time>2019-02-08T16:06:06Z</time>
      </trkpt>
      <trkpt lat="45.5164" lon="0.98048">
        <ele>333</ele>
        <time>2019-02-08T16:07:06Z</time>
      </trkpt>
      <trkpt lat="45.51592" lon="0.98014">
        <ele>331</ele>
        <time>2019-02-08T16:08:06Z</time>
      </trkpt>
      <trkpt lat="45.51573" lon="0.97987">
        <ele>329</ele>
        <time>2019-02-08T16:09:06Z</time>
      </trkpt>
      <trkpt lat="45.51551" lon="0.98006">
        <ele>329</ele>
        <time>2019-02-08T16:10:06Z</time>
      </trkpt>
      <trkpt lat="45.5152" lon="0.98013">
        <ele>328</ele>
        <time>2019-02-08T16:11:06Z</time>
      </trkpt>
      <trkpt lat="45.51437" lon="0.98011">
        <ele>329</ele>
        <time>2019-02-08T16:12:06Z</time>
      </trkpt>
      <trkpt lat="45.51416" lon="0.98002">
        <ele>329</ele>
        <time>2019-02-08T16:13:06Z</time>
      </trkpt>
      <trkpt lat="45.51379" lon="0.97963">
        <ele>329</ele>
        <time>2019-02-08T16:14:06Z</time>
      </trkpt>
      <trkpt lat="45.51336" lon="0.97947">
        <ele>330</ele>
        <time>2019-02-08T16:15:06Z</time>
      </trkpt>
      <trkpt lat="45.51306" lon="0.97945">
        <ele>329</ele>
        <time>2019-02-08T16:16:06Z</time>
      </trkpt>
      <trkpt lat="45.51238" lon="0.97983">
        <ele>326</ele>
        <time>2019-02-08T16:17:06Z</time>
      </trkpt>
      <trkpt lat="45.51233" lon="0.97968">
        <ele>326</ele>
        <time>2019-02-08T16:18:06Z</time>
      </trkpt>
      <trkpt lat="45.50904" lon="0.97906">
        <ele>320</ele>
        <time>2019-02-08T16:19:06Z</time>
      </trkpt>
      <trkpt lat="45.50717" lon="0.97854">
        <ele>316</ele>
        <time>2019-02-08T16:20:06Z</time>
      </trkpt>
      <trkpt lat="45.50645" lon="0.97843">
        <ele>315</ele>
        <time>2019-02-08T16:21:06Z</time>
      </trkpt>
      <trkpt lat="45.50575" lon="0.97845">
        <ele>314</ele>
        <time>2019-02-08T16:22:06Z</time>
      </trkpt>
      <trkpt lat="45.50506" lon="0.97842">
        <ele>314</ele>
        <time>2019-02-08T16:23:06Z</time>
      </trkpt>
      <trkpt lat="45.50435" lon="0.97813">
        <ele>313</ele>
        <time>2019-02-08T16:24:06Z</time>
      </trkpt>
      <trkpt lat="45.50392" lon="0.97806">
        <ele>312</ele>
        <time>2019-02-08T16:25:06Z</time>
      </trkpt>
      <trkpt lat="45.50254" lon="0.97796">
        <ele>314</ele>
        <time>2019-02-08T16:26:06Z</time>
      </trkpt>
      <trkpt lat="45.50231" lon="0.9779">
        <ele>315</ele>
        <time>2019-02-08T16:27:06Z</time>
      </trkpt>
      <trkpt lat="45.50108" lon="0.97748">
        <ele>318</ele>
        <time>2019-02-08T16:28:06Z</time>
      </trkpt>
      <trkpt lat="45.50071" lon="0.97748">
        <ele>318</ele>
        <time>2019-02-08T16:29:06Z</time>
      </trkpt>
      <trkpt lat="45.50045" lon="0.97757">
        <ele>317</ele>
        <time>2019-02-08T16:30:06Z</time>
      </trkpt>
      <trkpt lat="45.49986" lon="0.97746">
        <ele>314</ele>
        <time>2019-02-08T16:31:06Z</time>
      </trkpt>
      <trkpt lat="45.49922" lon="0.97727">
        <ele>312</ele>
        <time>2019-02-08T16:32:06Z</time>
      </trkpt>
      <trkpt lat="45.49748" lon="0.97636">
        <ele>309</ele>
        <time>2019-02-08T16:33:06Z</time>
      </trkpt>
      <trkpt lat="45.49623" lon="0.97549">
        <ele>305</ele>
        <time>2019-02-08T16:34:06Z</time>
      </trkpt>
      <trkpt lat="45.49587" lon="0.97526">
        <ele>305</ele>
        <time>2019-02-08T16:35:06Z</time>
      </trkpt>
      <trkpt lat="45.49543" lon="0.97511">
        <ele>303</ele>
        <time>2019-02-08T16:36:06Z</time>
      </trkpt>
      <trkpt lat="45.49502" lon="0.97499">
        <ele>302</ele>
        <time>2019-02-08T16:37:06Z</time>
      </trkpt>
      <trkpt lat="45.49452" lon="0.97481">
        <ele>301</ele>
        <time>2019-02-08T16:38:06Z</time>
      </trkpt>
      <trkpt lat="45.49382" lon="0.97429">
        <ele>300</ele>
        <time>2019-02-08T16:39:06Z</time>
      </trkpt>
      <trkpt lat="45.4936" lon="0.97416">
        <ele>300</ele>
        <time>2019-02-08T16:40:06Z</time>
      </trkpt>
      <trkpt lat="45.49225" lon="0.97344">
        <ele>303</ele>
        <time>2019-02-08T16:41:06Z</time>
      </trkpt>
      <trkpt lat="45.49184" lon="0.97321">
        <ele>302</ele>
        <time>2019-02-08T16:42:06Z</time>
      </trkpt>
      <trkpt lat="45.49131" lon="0.97293">
        <ele>302</ele>
        <time>2019-02-08T16:43:06Z</time>
      </trkpt>
      <trkpt lat="45.49045" lon="0.97262">
        <ele>301</ele>
        <time>2019-02-08T16:44:06Z</time>
      </trkpt>
      <trkpt lat="45.48995" lon="0.97252">
        <ele>300</ele>
        <time>2019-02-08T16:45:06Z</time>
      </trkpt>
      <trkpt lat="45.48963" lon="0.9725">
        <ele>300</ele>
        <time>2019-02-08T16:46:06Z</time>
      </trkpt>
      <trkpt lat="45.4894" lon="0.97241">
        <ele>300</ele>
        <time>2019-02-08T16:47:06Z</time>
      </trkpt>
      <trkpt lat="45.48905" lon="0.97197">
        <ele>297</ele>
        <time>2019-02-08T16:48:06Z</time>
      </trkpt>
      <trkpt lat="45.48859" lon="0.97133">
        <ele>293</ele>
        <time>2019-02-08T16:49:06Z</time>
      </trkpt>
      <trkpt lat="45.48836" lon="0.9713">
        <ele>292</ele>
        <time>2019-02-08T16:50:06Z</time>
      </trkpt>
      <trkpt lat="45.48802" lon="0.9713">
        <ele>290</ele>
        <time>2019-02-08T16:51:06Z</time>
      </trkpt>
      <trkpt lat="45.48779" lon="0.97114">
        <ele>288</ele>
        <time>2019-02-08T16:52:06Z</time>
      </trkpt>
      <trkpt lat="45.4873" lon="0.97071">
        <ele>285</ele>
        <time>2019-02-08T16:53:06Z</time>
      </trkpt>
      <trkpt lat="45.48698" lon="0.97065">
        <ele>283</ele>
        <time>2019-02-08T16:54:06Z</time>
      </trkpt>
      <trkpt lat="45.4865" lon="0.97054">
        <ele>281</ele>
        <time>2019-02-08T16:55:06Z</time>
      </trkpt>
      <trkpt lat="45.48624" lon="0.97039">
        <ele>279</ele>
        <time>2019-02-08T16:56:06Z</time>
      </trkpt>
      <trkpt lat="45.486" lon="0.97023">
        <ele>278</ele>
        <time>2019-02-08T16:57:06Z</time>
      </trkpt>
      <trkpt lat="45.48568" lon="0.96968">
        <ele>275</ele>
        <time>2019-02-08T16:58:06Z</time>
      </trkpt>
      <trkpt lat="45.4839" lon="0.96754">
        <ele>264</ele>
        <time>2019-02-08T16:59:06Z</time>
      </trkpt>
      <trkpt lat="45.48271" lon="0.96704">
        <ele>256</ele>
        <time>2019-02-08T17:00:06Z</time>
      </trkpt>
      <trkpt lat="45.48258" lon="0.96696">
        <ele>256</ele>
        <time>2019-02-08T17:01:06Z</time>
      </trkpt>
      <trkpt lat="45.48245" lon="0.96671">
        <ele>255</ele>
        <time>2019-02-08T17:02:06Z</time>
      </trkpt>
      <trkpt lat="45.48241" lon="0.96643">
        <ele>253</ele>
        <time>2019-02-08T17:03:06Z</time>
      </trkpt>
      <trkpt lat="45.48248" lon="0.96584">
        <ele>251</ele>
        <time>2019-02-08T17:04:06Z</time>
      </trkpt>
      <trkpt lat="45.48246" lon="0.96551">
        <ele>248</ele>
        <time>2019-02-08T17:05:06Z</time>
      </trkpt>
      <trkpt lat="45.48234" lon="0.96499">
        <ele>243</ele>
        <time>2019-02-08T17:06:06Z</time>
      </trkpt>
      <trkpt lat="45.48201" lon="0.96434">
        <ele>236</ele>
        <time>2019-02-08T17:07:06Z</time>
      </trkpt>
      <trkpt lat="45.48171" lon="0.9641">
        <ele>234</ele>
        <time>2019-02-08T17:08:06Z</time>
      </trkpt>
      <trkpt lat="45.48137" lon="0.96399">
        <ele>233</ele>
        <time>2019-02-08T17:09:06Z</time>
      </trkpt>
      <trkpt lat="45.48108" lon="0.96405">
        <ele>232</ele>
        <time>2019-02-08T17:10:06Z</time>
      </trkpt>
      <trkpt lat="45.4808" lon="0.96425">
        <ele>233</ele>
        <time>2019-02-08T17:11:06Z</time>
      </trkpt>
      <trkpt lat="45.48048" lon="0.96454">
        <ele>231</ele>
        <time>2019-02-08T17:12:06Z</time>
      </trkpt>
      <trkpt lat="45.48029" lon="0.96455">
        <ele>229</ele>
        <time>2019-02-08T17:13:06Z</time>
      </trkpt>
      <trkpt lat="45.47992" lon="0.96431">
        <ele>225</ele>
        <time>2019-02-08T17:14:06Z</time>
      </trkpt>
      <trkpt lat="45.47977" lon="0.96431">
        <ele>226</ele>
        <time>2019-02-08T17:15:06Z</time>
      </trkpt>
      <trkpt lat="45.47951" lon="0.96455">
        <ele>228</ele>
        <time>2019-02-08T17:16:06Z</time>
      </trkpt>
      <trkpt lat="45.47902" lon="0.9652">
        <ele>228</ele>
        <time>2019-02-08T17:17:06Z</time>
      </trkpt>
      <trkpt lat="45.47887" lon="0.96537">
        <ele>229</ele>
        <time>2019-02-08T17:18:06Z</time>
      </trkpt>
      <trkpt lat="45.47864" lon="0.96546">
        <ele>230</ele>
        <time>2019-02-08T17:19:06Z</time>
      </trkpt>
      <trkpt lat="45.47845" lon="0.96537">
        <ele>232</ele>
        <time>2019-02-08T17:20:06Z</time>
      </trkpt>
      <trkpt lat="45.47808" lon="0.96481">
        <ele>237</ele>
        <time>2019-02-08T17:21:06Z</time>
      </trkpt>
      <trkpt lat="45.47761" lon="0.96422">
        <ele>242</ele>
        <time>2019-02-08T17:22:06Z</time>
      </trkpt>
      <trkpt lat="45.47728" lon="0.96399">
        <ele>246</ele>
        <time>2019-02-08T17:23:06Z</time>
      </trkpt>
      <trkpt lat="45.47699" lon="0.9636">
        <ele>251</ele>
        <time>2019-02-08T17:24:06Z</time>
      </trkpt>
      <trkpt lat="45.47679" lon="0.96341">
        <ele>253</ele>
        <time>2019-02-08T17:25:06Z</time>
      </trkpt>
      <trkpt lat="45.47661" lon="0.96335">
        <ele>254</ele>
        <time>2019-02-08T17:26:06Z</time>
      </trkpt>
      <trkpt lat="45.47633" lon="0.96332">
        <ele>255</ele>
        <time>2019-02-08T17:27:06Z</time>
      </trkpt>
      <trkpt lat="45.47593" lon="0.96325">
        <ele>256</ele>
        <time>2019-02-08T17:28:06Z</time>
      </trkpt>
      <trkpt lat="45.47502" lon="0.9634">
        <ele>260</ele>
        <time>2019-02-08T17:29:06Z</time>
      </trkpt>
      <trkpt lat="45.47465" lon="0.96344">
        <ele>262</ele>
        <time>2019-02-08T17:30:06Z</time>
      </trkpt>
      <trkpt lat="45.47426" lon="0.96337">
        <ele>264</ele>
        <time>2019-02-08T17:31:06Z</time>
      </trkpt>
      <trkpt lat="45.47395" lon="0.96322">
        <ele>266</ele>
        <time>2019-02-08T17:32:06Z</time>
      </trkpt>
      <trkpt lat="45.47378" lon="0.963">
        <ele>268</ele>
        <time>2019-02-08T17:33:06Z</time>
      </trkpt>
      <trkpt lat="45.47072" lon="0.95809">
        <ele>285</ele>
        <time>2019-02-08T17:34:06Z</time>
      </trkpt>
      <trkpt lat="45.46926" lon="0.95577">
        <ele>285</ele>
        <time>2019-02-08T17:35:06Z</time>
      </trkpt>
      <trkpt lat="45.46905" lon="0.95555">
        <ele>285</ele>
        <time>2019-02-08T17:36:06Z</time>
      </trkpt>
      <trkpt lat="45.46877" lon="0.95539">
        <ele>284</ele>
        <time>2019-02-08T17:37:06Z</time>
      </trkpt>
      <trkpt lat="45.46828" lon="0.95511">
        <ele>282</ele>
        <time>2019-02-08T17:38:06Z</time>
      </trkpt>
      <trkpt lat="45.46796" lon="0.9549">
        <ele>282</ele>
        <time>2019-02-08T17:39:06Z</time>
      </trkpt>
      <trkpt lat="45.46768" lon="0.95454">
        <ele>281</ele>
        <time>2019-02-08T17:40:06Z</time>
      </trkpt>
      <trkpt lat="45.4672" lon="0.95381">
        <ele>282</ele>
        <time>2019-02-08T17:41:06Z</time>
      </trkpt>
      <trkpt lat="45.46695" lon="0.95361">
        <ele>283</ele>
        <time>2019-02-08T17:42:06Z</time>
      </trkpt>
      <trkpt lat="45.46663" lon="0.95344">
        <ele>283</ele>
        <time>2019-02-08T17:43:06Z</time>
      </trkpt>
      <trkpt lat="45.46381" lon="0.95241">
        <ele>278</ele>
        <time>2019-02-08T17:44:06Z</time>
      </trkpt>
      <trkpt lat="45.46304" lon="0.95209">
        <ele>277</ele>
        <time>2019-02-08T17:45:06Z</time>
      </trkpt>
      <trkpt lat="45.46283" lon="0.95194">
        <ele>277</ele>
        <time>2019-02-08T17:46:06Z</time>
      </trkpt>
      <trkpt lat="45.46109" lon="0.95003">
        <ele>275</ele>
        <time>2019-02-08T17:47:06Z</time>
      </trkpt>
      <trkpt lat="45.46072" lon="0.94947">
        <ele>274</ele>
        <time>2019-02-08T17:48:06Z</time>
      </trkpt>
      <trkpt lat="45.46025" lon="0.94862">
        <ele>276</ele>
        <time>2019-02-08T17:49:06Z</time>
      </trkpt>
      <trkpt lat="45.46003" lon="0.94813">
        <ele>276</ele>
        <time>2019-02-08T17:50:06Z</time>
      </trkpt>
      <trkpt lat="45.4589" lon="0.94847">
        <ele>276</ele>
        <time>2019-02-08T17:51:06Z</time>
      </trkpt>
      <trkpt lat="45.45848" lon="0.94851">
        <ele>276</ele>
        <time>2019-02-08T17:52:06Z</time>
      </trkpt>
      <trkpt lat="45.45782" lon="0.94845">
        <ele>277</ele>
        <time>2019-02-08T17:53:06Z</time>
      </trkpt>
      <trkpt lat="45.45707" lon="0.94844">
        <ele>278</ele>
        <time>2019-02-08T17:54:06Z</time>
      </trkpt>
      <trkpt lat="45.45644" lon="0.94848">
        <ele>278</ele>
        <time>2019-02-08T17:55:06Z</time>
      </trkpt>
      <trkpt lat="45.45405" lon="0.94898">
        <ele>282</ele>
        <time>2019-02-08T17:56:06Z</time>
      </trkpt>
      <trkpt lat="45.45359" lon="0.94924">
        <ele>283</ele>
        <time>2019-02-08T17:57:06Z</time>
      </trkpt>
      <trkpt lat="45.45309" lon="0.94951">
        <ele>283</ele>
        <time>2019-02-08T17:58:06Z</time>
      </trkpt>
      <trkpt lat="45.45253" lon="0.94977">
        <ele>286</ele>
        <time>2019-02-08T17:59:06Z</time>
      </trkpt>
      <trkpt lat="45.45206" lon="0.9503">
        <ele>285</ele>
        <time>2019-02-08T18:00:06Z</time>
      </trkpt>
      <trkpt lat="45.45159" lon="0.95074">
        <ele>285</ele>
        <time>2019-02-08T18:01:06Z</time>
      </trkpt>
      <trkpt lat="45.45123" lon="0.95087">
        <ele>285</ele>
        <time>2019-02-08T18:02:06Z</time>
      </trkpt>
      <trkpt lat="45.45056" lon="0.95106">
        <ele>285</ele>
        <time>2019-02-08T18:03:06Z</time>
      </trkpt>
      <trkpt lat="45.45038" lon="0.9509">
        <ele>285</ele>
        <time>2019-02-08T18:04:06Z</time>
      </trkpt>
      <trkpt lat="45.45004" lon="0.95093">
        <ele>286</ele>
        <time>2019-02-08T18:05:06Z</time>
      </trkpt>
      <trkpt lat="45.44942" lon="0.95123">
        <ele>285</ele>
        <time>2019-02-08T18:06:06Z</time>
      </trkpt>
      <trkpt lat="45.44906" lon="0.95152">
        <ele>285</ele>
        <time>2019-02-08T18:07:06Z</time>
      </trkpt>
      <trkpt lat="45.44876" lon="0.95165">
        <ele>286</ele>
        <time>2019-02-08T18:08:06Z</time>
      </trkpt>
      <trkpt lat="45.44817" lon="0.95184">
        <ele>288</ele>
        <time>2019-02-08T18:09:06Z</time>
      </trkpt>
      <trkpt lat="45.44748" lon="0.95215">
        <ele>287</ele>
        <time>2019-02-08T18:10:06Z</time>
      </trkpt>
      <trkpt lat="45.44704" lon="0.95228">
        <ele>285</ele>
        <time>2019-02-08T18:11:06Z</time>
      </trkpt>
      <trkpt lat="45.44659" lon="0.95234">
        <ele>284</ele>
        <time>2019-02-08T18:12:06Z</time>
      </trkpt>
      <trkpt lat="45.44621" lon="0.95246">
        <ele>283</ele>
        <time>2019-02-08T18:13:06Z</time>
      </trkpt>
      <trkpt lat="45.4459" lon="0.95158">
        <ele>285</ele>
        <time>2019-02-08T18:14:06Z</time>
      </trkpt>
      <trkpt lat="45.4457" lon="0.9514">
        <ele>287</ele>
        <time>2019-02-08T18:15:06Z</time>
      </trkpt>
      <trkpt lat="45.44545" lon="0.95132">
        <ele>289</ele>
        <time>2019-02-08T18:16:06Z</time>
      </trkpt>
      <trkpt lat="45.44525" lon="0.95127">
        <ele>290</ele>
        <time>2019-02-08T18:17:06Z</time>
      </trkpt>
      <trkpt lat="45.44485" lon="0.95164">
        <ele>289</ele>
        <time>2019-02-08T18:18:06Z</time>
      </trkpt>
      <trkpt lat="45.44433" lon="0.95155">
        <ele>291</ele>
        <time>2019-02-08T18:19:06Z</time>
      </trkpt>
      <trkpt lat="45.44405" lon="0.9517">
        <ele>291</ele>
        <time>2019-02-08T18:20:06Z</time>
      </trkpt>
      <trkpt lat="45.44387" lon="0.95185">
        <ele>293</ele>
        <time>2019-02-08T18:21:06Z</time>
      </trkpt>
      <trkpt lat="45.44376" lon="0.95176">
        <ele>294</ele>
        <time>2019-02-08T18:22:06Z</time>
      </trkpt>
      <trkpt lat="45.4435" lon="0.95117">
        <ele>298</ele>
        <time>2019-02-08T18:23:06Z</time>
      </trkpt>
      <trkpt lat="45.44338" lon="0.951">
        <ele>300</ele>
        <time>2019-02-08T18:24:06Z</time>
      </trkpt>
      <trkpt lat="45.44326" lon="0.951">
        <ele>301</ele>
        <time>2019-02-08T18:25:06Z</time>
      </trkpt>
      <trkpt lat="45.44237" lon="0.95024">
        <ele>304</ele>
        <time>2019-02-08T18:26:06Z</time>
      </trkpt>
      <trkpt lat="45.44263" lon="0.94933">
        <ele>306</ele>
        <time>2019-02-08T18:27:06Z</time>
      </trkpt>
      <trkpt lat="45.44274" lon="0.94862">
        <ele>307</ele>
        <time>2019-02-08T18:28:06Z</time>
      </trkpt>
      <trkpt lat="45.44285" lon="0.94697">
        <ele>310</ele>
        <time>2019-02-08T18:29:06Z</time>
      </trkpt>
      <trkpt lat="45.44286" lon="0.94636">
        <ele>310</ele>
        <time>2019-02-08T18:30:06Z</time>
      </trkpt>
      <trkpt lat="45.44284" lon="0.94606">
        <ele>310</ele>
        <time>2019-02-08T18:31:06Z</time>
      </trkpt>
      <trkpt lat="45.44277" lon="0.94551">
        <ele>310</ele>
        <time>2019-02-08T18:32:06Z</time>
      </trkpt>
      <trkpt lat="45.44253" lon="0.9454">
        <ele>310</ele>
        <time>2019-02-08T18:33:06Z</time>
      </trkpt>
      <trkpt lat="45.43746" lon="0.94046">
        <ele>270</ele>
        <time>2019-02-08T18:34:06Z</time>
      </trkpt>
      <trkpt lat="45.43468" lon="0.9377">
        <ele>262</ele>
        <time>2019-02-08T18:35:06Z</time>
      </trkpt>
      <trkpt lat="45.43136" lon="0.93443">
        <ele>268</ele>
        <time>2019-02-08T18:36:06Z</time>
      </trkpt>
      <trkpt lat="45.43005" lon="0.93612">
        <ele>274</ele>
        <time>2019-02-08T18:37:06Z</time>
      </trkpt>
      <trkpt lat="45.42979" lon="0.93634">
        <ele>274</ele>
        <time>2019-02-08T18:38:06Z</time>
      </trkpt>
      <trkpt lat="45.42927" lon="0.93662">
        <ele>275</ele>
        <time>2019-02-08T18:39:06Z</time>
      </trkpt>
      <trkpt lat="45.42873" lon="0.93688">
        <ele>274</ele>
        <time>2019-02-08T18:40:06Z</time>
      </trkpt>
      <trkpt lat="45.428" lon="0.93695">
        <ele>273</ele>
        <time>2019-02-08T18:41:06Z</time>
      </trkpt>
      <trkpt lat="45.42743" lon="0.93691">
        <ele>273</ele>
        <time>2019-02-08T18:42:06Z</time>
      </trkpt>
      <trkpt lat="45.42657" lon="0.93671">
        <ele>277</ele>
        <time>2019-02-08T18:43:06Z</time>
      </trkpt>
      <trkpt lat="45.42602" lon="0.93647">
        <ele>277</ele>
        <time>2019-02-08T18:44:06Z</time>
      </trkpt>
      <trkpt lat="45.42538" lon="0.93607">
        <ele>275</ele>
        <time>2019-02-08T18:45:06Z</time>
      </trkpt>
      <trkpt lat="45.42429" lon="0.9372">
        <ele>273</ele>
        <time>2019-02-08T18:46:06Z</time>
      </trkpt>
      <trkpt lat="45.42403" lon="0.93741">
        <ele>273</ele>
        <time>2019-02-08T18:47:06Z</time>
      </trkpt>
      <trkpt lat="45.42342" lon="0.93753">
        <ele>272</ele>
        <time>2019-02-08T18:48:06Z</time>
      </trkpt>
      <trkpt lat="45.42338" lon="0.9371">
        <ele>272</ele>
        <time>2019-02-08T18:49:06Z</time>
      </trkpt>
      <trkpt lat="45.42316" lon="0.93641">
        <ele>270</ele>
        <time>2019-02-08T18:50:06Z</time>
      </trkpt>
      <trkpt lat="45.42272" lon="0.93556">
        <ele>268</ele>
        <time>2019-02-08T18:51:06Z</time>
      </trkpt>
      <trkpt lat="45.42247" lon="0.93531">
        <ele>267</ele>
        <time>2019-02-08T18:52:06Z</time>
      </trkpt>
      <trkpt lat="45.42211" lon="0.93481">
        <ele>266</ele>
        <time>2019-02-08T18:53:06Z</time>
      </trkpt>
      <trkpt lat="45.42114" lon="0.93214">
        <ele>264</ele>
        <time>2019-02-08T18:54:06Z</time>
      </trkpt>
      <trkpt lat="45.42086" lon="0.93125">
        <ele>264</ele>
        <time>2019-02-08T18:55:06Z</time>
      </trkpt>
      <trkpt lat="45.42095" lon="0.9283">
        <ele>272</ele>
        <time>2019-02-08T18:56:06Z</time>
      </trkpt>
      <trkpt lat="45.42098" lon="0.92724">
        <ele>273</ele>
        <time>2019-02-08T18:57:06Z</time>
      </trkpt>
      <trkpt lat="45.42092" lon="0.92651">
        <ele>271</ele>
        <time>2019-02-08T18:58:06Z</time>
      </trkpt>
      <trkpt lat="45.42077" lon="0.92591">
        <ele>266</ele>
        <time>2019-02-08T18:59:06Z</time>
      </trkpt>
      <trkpt lat="45.4205" lon="0.92527">
        <ele>259</ele>
        <time>2019-02-08T19:00:06Z</time>
      </trkpt>
      <trkpt lat="45.41962" lon="0.9231">
        <ele>252</ele>
        <time>2019-02-08T19:01:06Z</time>
      </trkpt>
      <trkpt lat="45.41966" lon="0.92293">
        <ele>252</ele>
        <time>2019-02-08T19:02:06Z</time>
      </trkpt>
      <trkpt lat="45.41961" lon="0.92276">
        <ele>251</ele>
        <time>2019-02-08T19:03:06Z</time>
      </trkpt>
      <trkpt lat="45.41941" lon="0.92259">
        <ele>250</ele>
        <time>2019-02-08T19:04:06Z</time>
      </trkpt>
      <trkpt lat="45.41919" lon="0.92241">
        <ele>250</ele>
        <time>2019-02-08T19:05:06Z</time>
      </trkpt>
      <trkpt lat="45.41769" lon="0.92193">
        <ele>251</ele>
        <time>2019-02-08T19:06:06Z</time>
      </trkpt>
      <trkpt lat="45.41636" lon="0.92155">
        <ele>263</ele>
        <time>2019-02-08T19:07:06Z</time>
      </trkpt>
      <trkpt lat="45.41589" lon="0.92141">
        <ele>267</ele>
        <time>2019-02-08T19:08:06Z</time>
      </trkpt>
      <trkpt lat="45.41566" lon="0.9213">
        <ele>268</ele>
        <time>2019-02-08T19:09:06Z</time>
      </trkpt>
      <trkpt lat="45.41544" lon="0.92116">
        <ele>270</ele>
        <time>2019-02-08T19:10:06Z</time>
      </trkpt>
      <trkpt lat="45.41485" lon="0.92067">
        <ele>275</ele>
        <time>2019-02-08T19:11:06Z</time>
      </trkpt>
      <trkpt lat="45.41465" lon="0.92068">
        <ele>275</ele>
        <time>2019-02-08T19:12:06Z</time>
      </trkpt>
    </trkseg>
  </trk>
</gpx>